Time;durP1;ratioP1;P1;durP2;ratioP2;P2;SDS_P1;SDS_P2;PMS_P1;PMS_P2;Temp;Humidity;BMP_temperature;BMP_pressure;BME280_temperature;BME280_humidity;BME280_pressure;Samples;Min_cycle;Max_cycle;Signal;HPM_P1;HPM_P2
2022/06/11 00:02:01;;;;;;;9.70;6.95;;;;;;;19.94;70.12;99372.56;4331995;33;34653;-71
2022/06/11 00:04:33;;;;;;;9.95;7.18;;;;;;;19.77;70.81;99362.84;4331598;33;35903;-70
2022/06/11 00:07:08;;;;;;;9.13;6.40;;;;;;;19.11;73.70;99367.63;4343819;32;35036;-71
2022/06/11 00:09:36;;;;;;;9.95;7.15;;;;;;;19.68;71.13;99361.47;4333317;33;33608;-70
2022/06/11 00:12:05;;;;;;;11.98;7.50;;;;;;;19.38;72.27;99374.34;4343912;32;34605;-70
2022/06/11 00:14:33;;;;;;;10.43;7.12;;;;;;;19.45;71.92;99367.84;4332029;33;35932;-70
2022/06/11 00:17:03;;;;;;;10.60;7.93;;;;;;;19.23;73.16;99365.31;4331867;33;34566;-70
2022/06/11 00:19:33;;;;;;;12.45;7.75;;;;;;;19.02;73.60;99368.00;4333036;33;33521;-70
2022/06/11 00:22:01;;;;;;;10.23;7.07;;;;;;;19.31;72.56;99363.19;4326807;33;34009;-70
2022/06/11 00:24:29;;;;;;;10.13;7.05;;;;;;;19.53;71.99;99363.03;4342895;33;35234;-70
2022/06/11 00:26:59;;;;;;;10.65;7.65;;;;;;;19.29;72.79;99365.91;4327475;33;35377;-70
2022/06/11 00:29:29;;;;;;;11.50;8.07;;;;;;;18.99;74.26;99372.56;4341640;33;33451;-70
2022/06/11 00:31:57;;;;;;;10.40;7.85;;;;;;;19.05;74.06;99367.87;4338571;33;161809;-69
2022/06/11 00:34:26;;;;;;;11.82;8.50;;;;;;;19.08;74.12;99365.09;4342786;33;35888;-70
2022/06/11 00:36:55;;;;;;;10.63;7.35;;;;;;;19.55;71.87;99365.59;4333458;33;35080;-70
2022/06/11 00:39:26;;;;;;;12.57;7.45;;;;;;;19.63;71.22;99363.47;4344164;33;33456;-70
2022/06/11 00:41:59;;;;;;;10.45;7.32;;;;;;;19.47;72.02;99368.63;4345342;33;33796;-70
2022/06/11 00:44:27;;;;;;;12.23;8.23;;;;;;;19.38;72.52;99379.62;4331624;33;35624;-70
2022/06/11 00:47:12;;;;;;;11.65;8.15;;;;;;;19.68;70.69;99374.69;4345260;33;35156;-70
2022/06/11 00:49:49;;;;;;;11.27;7.55;;;;;;;19.50;71.41;99379.91;4331082;33;34349;-70
2022/06/11 00:52:30;;;;;;;11.68;7.50;;;;;;;19.19;73.08;99382.25;4334315;33;33917;-70
2022/06/11 00:55:04;;;;;;;11.00;8.05;;;;;;;18.97;73.97;99379.69;4333264;33;35049;-71
2022/06/11 00:57:35;;;;;;;11.00;7.97;;;;;;;19.25;72.67;99379.31;4333001;33;34472;-70
2022/06/11 01:00:15;;;;;;;10.43;7.93;;;;;;;19.45;71.95;99375.78;4331794;33;34573;-70
2022/06/11 01:02:44;;;;;;;12.60;8.68;;;;;;;18.70;75.07;99372.06;4345011;33;34737;-70
2022/06/11 01:05:25;;;;;;;10.45;7.65;;;;;;;18.89;74.13;99374.78;4320380;33;34297;-70
2022/06/11 01:08:00;;;;;;;9.52;7.10;;;;;;;19.20;72.75;99368.09;4332342;33;35077;-70
2022/06/11 01:11:10;;;;;;;12.02;7.30;;;;;;;19.23;72.30;99367.97;4331033;33;32691;-70
2022/06/11 01:13:53;;;;;;;11.82;7.28;;;;;;;19.10;72.36;99373.81;4334141;33;34832;-70
2022/06/11 01:16:29;;;;;;;12.07;7.72;;;;;;;18.99;73.14;99367.28;4320392;33;34305;-70
2022/06/11 01:19:03;;;;;;;;;;;;;;;19.09;72.92;99371.22;4334338;33;34548;-70
2022/06/11 01:22:03;;;;;;;11.07;7.28;;;;;;;19.04;73.21;99371.47;4333628;33;34230;-70
2022/06/11 01:24:38;;;;;;;10.55;7.28;;;;;;;18.77;74.21;99369.06;4332757;33;33924;-71
2022/06/11 01:27:21;;;;;;;11.18;8.00;;;;;;;18.60;74.89;99376.87;4333987;33;35006;-70
2022/06/11 01:30:15;;;;;;;12.27;8.25;;;;;;;18.97;73.26;99375.31;4333394;33;34323;-70
2022/06/11 01:32:53;;;;;;;9.32;6.87;;;;;;;19.17;72.25;99382.31;4344711;33;34219;-70
2022/06/11 01:35:24;;;;;;;10.13;7.28;;;;;;;18.46;75.16;99377.47;4333118;33;34003;-70
2022/06/11 01:38:03;;;;;;;9.48;6.97;;;;;;;18.90;73.21;99379.09;4331322;33;35095;-70
2022/06/11 01:40:43;;;;;;;11.43;7.53;;;;;;;19.31;71.04;99385.16;4331469;33;34395;-71
2022/06/11 01:43:16;;;;;;;10.25;7.40;;;;;;;19.54;69.60;99385.03;4332101;33;33348;-70
2022/06/11 01:45:44;;;;;;;9.05;6.65;;;;;;;19.01;71.43;99382.16;4344227;32;34904;-70
2022/06/11 01:48:24;;;;;;;11.57;7.12;;;;;;;19.48;69.19;99381.75;4344757;33;35823;-70
2022/06/11 01:51:03;;;;;;;10.15;6.57;;;;;;;19.54;68.83;99382.41;4333316;33;34278;-70
2022/06/11 01:54:16;;;;;;;9.65;6.57;;;;;;;19.52;69.03;99379.84;4333774;33;33409;-70
2022/06/11 01:57:22;;;;;;;9.13;6.97;;;;;;;19.50;69.04;99385.19;4322515;33;33823;-70
2022/06/11 01:59:59;;;;;;;9.73;6.45;;;;;;;19.59;68.75;99389.19;4332824;33;35129;-70
2022/06/11 02:02:43;;;;;;;11.52;7.28;;;;;;;19.57;68.49;99388.41;4333145;33;34349;-70
2022/06/11 02:05:55;;;;;;;10.40;6.78;;;;;;;18.95;71.21;99387.69;4332949;33;33572;-70
2022/06/11 02:08:47;;;;;;;9.38;6.93;;;;;;;19.62;68.28;99386.38;4327680;33;34693;-70
2022/06/11 02:11:36;;;;;;;10.32;7.60;;;;;;;19.51;68.36;99380.75;4329793;33;35123;-70
2022/06/11 02:14:07;;;;;;;10.75;7.72;;;;;;;19.55;68.28;99392.88;4332576;33;34176;-70
2022/06/11 02:16:38;;;;;;;9.00;6.70;;;;;;;19.30;69.50;99393.16;4333126;33;33483;-70
2022/06/11 02:19:10;;;;;;;11.75;7.25;;;;;;;19.49;69.01;99388.75;4332611;33;33843;-70
2022/06/11 02:21:47;;;;;;;10.95;7.57;;;;;;;18.81;71.62;99384.75;4333363;33;34938;-70
2022/06/11 02:24:27;;;;;;;10.82;7.03;;;;;;;19.19;70.39;99391.00;4332446;33;34425;-70
2022/06/11 02:26:58;;;;;;;12.70;7.72;;;;;;;19.08;71.17;99393.28;4332170;33;34252;-70
2022/06/11 02:29:26;;;;;;;11.07;7.57;;;;;;;19.27;70.55;99394.16;4308049;33;34122;-70
2022/06/11 02:31:59;;;;;;;11.32;6.90;;;;;;;19.32;69.94;99396.56;4331796;33;36012;-70
2022/06/11 02:34:27;;;;;;;11.73;7.62;;;;;;;19.03;71.01;99396.12;4331945;33;35202;-71
2022/06/11 02:37:10;;;;;;;11.15;8.15;;;;;;;18.91;71.35;99399.31;4331253;33;34296;-70
2022/06/11 02:39:41;;;;;;;10.00;7.68;;;;;;;19.18;70.51;99397.19;4331741;33;34820;-70
2022/06/11 02:42:14;;;;;;;11.52;8.13;;;;;;;19.05;70.80;99411.91;4331578;33;34966;-70
2022/06/11 02:44:42;;;;;;;11.30;7.40;;;;;;;18.99;71.05;99410.38;4331499;33;34925;-70
2022/06/11 02:47:11;;;;;;;13.10;8.00;;;;;;;19.14;70.26;99414.97;4333078;33;33589;-70
2022/06/11 02:49:39;;;;;;;11.73;8.75;;;;;;;18.67;72.78;99409.97;4331479;33;33898;-70
2022/06/11 02:52:13;;;;;;;13.18;8.02;;;;;;;18.60;72.88;99408.53;4333014;33;35949;-70
2022/06/11 02:54:43;;;;;;;12.85;8.57;;;;;;;18.94;71.97;99412.38;4331458;33;34457;-70
2022/06/11 02:57:15;;;;;;;12.05;7.72;;;;;;;18.78;72.53;99417.44;4343583;33;34367;-70
2022/06/11 02:59:44;;;;;;;12.82;8.18;;;;;;;18.76;72.61;99411.38;4343346;33;34965;-70
2022/06/11 03:02:12;;;;;;;10.43;7.62;;;;;;;18.55;73.62;99413.13;4332573;32;34914;-71
2022/06/11 03:04:40;;;;;;;11.00;8.10;;;;;;;18.80;72.83;99414.72;4343319;33;35208;-70
2022/06/11 03:07:10;;;;;;;12.30;8.38;;;;;;;18.17;74.88;99415.56;4331557;33;34238;-70
2022/06/11 03:09:39;;;;;;;12.30;8.02;;;;;;;18.33;74.71;99421.94;4332775;33;33849;-70
2022/06/11 03:12:09;;;;;;;10.23;7.93;;;;;;;18.31;74.90;99421.13;4319295;33;35527;-71
2022/06/11 03:14:38;;;;;;;11.82;8.68;;;;;;;18.75;73.20;99415.75;4331043;33;34455;-70
2022/06/11 03:17:06;;;;;;;11.65;7.82;;;;;;;18.80;72.96;99415.56;4331221;33;34307;-70
2022/06/11 03:19:33;;;;;;;12.88;8.57;;;;;;;18.62;74.27;99419.88;4343702;33;34645;-70
2022/06/11 03:22:02;;;;;;;10.70;8.30;;;;;;;19.04;71.77;99411.03;4331278;33;34604;-70
2022/06/11 03:24:30;;;;;;;13.02;8.27;;;;;;;18.93;72.12;99410.66;4334290;33;34489;-70
2022/06/11 03:26:57;;;;;;;10.93;8.55;;;;;;;19.05;72.18;99418.03;4333936;33;33288;-70
2022/06/11 03:29:26;;;;;;;11.30;8.40;;;;;;;18.75;73.26;99422.81;4334171;33;33797;-70
2022/06/11 03:31:54;;;;;;;11.90;8.90;;;;;;;18.91;72.54;99412.50;4344578;32;35163;-71
2022/06/11 03:34:23;;;;;;;11.60;7.82;;;;;;;19.29;71.09;99416.06;4345660;33;34400;-70
2022/06/11 03:36:52;;;;;;;12.02;8.95;;;;;;;19.18;71.43;99422.75;4332865;33;32992;-70
2022/06/11 03:39:21;;;;;;;12.98;8.73;;;;;;;19.05;72.14;99430.37;4334544;33;34777;-70
2022/06/11 03:41:49;;;;;;;14.00;10.73;;;;;;;19.08;71.82;99439.00;4334081;33;35093;-70
2022/06/11 03:44:17;;;;;;;11.88;8.60;;;;;;;18.22;75.76;99454.94;4334031;33;34951;-71
2022/06/11 03:46:46;;;;;;;15.35;8.95;;;;;;;18.98;73.17;99450.88;4331566;33;33781;-69
2022/06/11 03:49:15;;;;;;;11.68;8.50;;;;;;;19.19;72.59;99449.09;4345456;33;33309;-69
2022/06/11 03:51:44;;;;;;;14.20;7.97;;;;;;;19.21;71.97;99443.75;4331571;33;34822;-69
2022/06/11 03:54:13;;;;;;;13.13;8.45;;;;;;;19.16;72.47;99440.44;4334407;33;34475;-69
2022/06/11 03:56:42;;;;;;;12.27;8.35;;;;;;;18.85;74.05;99433.88;4344534;32;33518;-79
2022/06/11 03:59:10;;;;;;;14.00;8.23;;;;;;;19.31;72.52;99432.69;4345121;33;33915;-69
2022/06/11 04:01:38;;;;;;;12.13;7.93;;;;;;;19.09;73.30;99432.78;4333846;33;34910;-75
2022/06/11 04:04:09;;;;;;;10.68;8.13;;;;;;;19.47;71.90;99437.28;4345388;33;34548;-79
2022/06/11 04:06:44;;;;;;;9.68;7.47;;;;;;;19.50;71.59;99438.00;4331959;33;33768;-80
2022/06/11 04:09:18;;;;;;;13.50;7.77;;;;;;;19.17;72.74;99439.53;4333284;33;34043;-79
2022/06/11 04:11:46;;;;;;;10.98;7.90;;;;;;;19.54;72.77;99440.50;4327951;33;36288;-75
2022/06/11 04:14:15;;;;;;;10.23;7.55;;;;;;;19.51;72.36;99441.50;4333175;33;34618;-79
2022/06/11 04:16:55;;;;;;;10.27;7.62;;;;;;;19.38;72.64;99443.84;4333742;33;34452;-80
2022/06/11 04:19:27;;;;;;;11.77;7.05;;;;;;;20.21;69.59;99447.91;4332490;33;34752;-78
2022/06/11 04:21:57;;;;;;;10.45;7.22;;;;;;;20.80;67.28;99445.03;4332907;33;35073;-71
2022/06/11 04:24:25;;;;;;;10.85;7.40;;;;;;;21.11;66.79;99451.38;4345128;33;34580;-75
2022/06/11 04:26:55;;;;;;;8.30;6.75;;;;;;;21.47;65.06;99442.44;4344114;32;33719;-70
2022/06/11 04:29:27;;;;;;;9.88;7.37;;;;;;;21.58;64.04;99440.06;4333340;33;34607;-70
2022/06/11 04:31:58;;;;;;;9.40;7.22;;;;;;;21.93;63.24;99438.09;4333613;33;35851;-69
2022/06/11 04:34:27;;;;;;;10.90;8.10;;;;;;;22.29;62.25;99436.16;4319101;33;33090;-82
2022/06/11 04:36:55;;;;;;;11.15;6.55;;;;;;;21.87;62.67;99429.66;4332116;33;33718;-77
2022/06/11 04:39:26;;;;;;;11.65;6.85;;;;;;;21.96;63.25;99439.75;4333003;33;34847;-70
2022/06/11 04:41:54;;;;;;;9.88;6.97;;;;;;;21.99;63.44;99434.28;4332586;33;34352;-70
2022/06/11 04:44:22;;;;;;;10.38;7.12;;;;;;;21.77;63.72;99447.84;4334121;33;34517;-69
2022/06/11 04:46:50;;;;;;;9.65;6.72;;;;;;;21.39;65.65;99448.97;4333417;33;33604;-69
2022/06/11 04:49:18;;;;;;;12.45;6.80;;;;;;;21.63;65.76;99443.31;4332236;33;34766;-70
2022/06/11 04:51:46;;;;;;;13.38;7.40;;;;;;;21.78;64.94;99438.97;4332263;33;34340;-80
2022/06/11 04:54:14;;;;;;;12.32;7.47;;;;;;;21.33;65.34;99449.28;4333984;33;35217;-72
2022/06/11 04:56:42;;;;;;;10.20;6.78;;;;;;;21.94;64.26;99446.94;4344923;32;33192;-76
2022/06/11 04:59:10;;;;;;;9.32;6.62;;;;;;;21.97;63.33;99452.03;4344687;33;33949;-69
2022/06/11 05:01:40;;;;;;;9.85;7.37;;;;;;;21.87;63.38;99459.66;4333740;33;35018;-70
2022/06/11 05:04:09;;;;;;;11.07;7.18;;;;;;;21.39;65.82;99456.94;4332889;33;34306;-71
2022/06/11 05:06:41;;;;;;;11.93;7.32;;;;;;;21.89;63.72;99454.28;4333938;33;33338;-70
2022/06/11 05:09:12;;;;;;;10.02;7.30;;;;;;;21.21;66.13;99468.47;4344950;33;33818;-69
2022/06/11 05:11:41;;;;;;;11.60;7.75;;;;;;;20.66;68.40;99471.31;4333920;33;34996;-69
2022/06/11 05:14:09;;;;;;;9.23;7.32;;;;;;;21.13;66.74;99474.19;4333910;33;35270;-72
2022/06/11 05:16:37;;;;;;;11.68;8.07;;;;;;;20.67;68.45;99478.34;4333409;33;33689;-79
2022/06/11 05:19:05;;;;;;;9.25;6.72;;;;;;;21.21;66.15;99469.34;4332640;33;33673;-82
2022/06/11 05:21:34;;;;;;;11.00;7.80;;;;;;;21.16;66.74;99475.81;4333195;33;35044;-77
2022/06/11 05:24:02;;;;;;;10.52;7.97;;;;;;;21.03;67.14;99480.88;4332694;33;34353;-71
2022/06/11 05:26:39;;;;;;;12.00;8.15;;;;;;;20.93;67.97;99484.94;4332935;33;33488;-69
2022/06/11 05:29:07;;;;;;;11.32;8.25;;;;;;;20.53;70.22;99485.13;4332258;33;34188;-69
2022/06/11 05:31:35;;;;;;;11.00;7.93;;;;;;;20.24;73.56;99483.91;4333120;33;35052;-75
2022/06/11 05:34:03;;;;;;;12.63;7.10;;;;;;;20.61;70.69;99480.38;4333795;33;34438;-71
2022/06/11 05:36:31;;;;;;;11.15;8.10;;;;;;;21.23;69.28;99485.16;4332413;33;33033;-70
2022/06/11 05:38:59;;;;;;;9.55;7.47;;;;;;;21.49;67.88;99482.94;4333092;33;34855;-71
2022/06/11 05:41:26;;;;;;;11.07;8.25;;;;;;;20.80;70.89;99476.78;4343874;32;35012;-70
2022/06/11 05:43:54;;;;;;;9.65;7.00;;;;;;;20.90;68.99;99482.47;4333661;33;35301;-70
2022/06/11 05:46:26;;;;;;;10.02;7.43;;;;;;;21.49;66.72;99482.94;4332849;33;33390;-69
2022/06/11 05:48:59;;;;;;;11.57;7.37;;;;;;;21.54;65.94;99486.22;4344811;33;34783;-78
2022/06/11 05:51:32;;;;;;;8.85;6.90;;;;;;;21.93;65.89;99490.28;4343444;32;35546;-80
2022/06/11 05:54:02;;;;;;;9.32;7.30;;;;;;;21.82;66.25;99500.63;4330421;33;32786;-74
2022/06/11 05:56:30;;;;;;;9.85;6.93;;;;;;;21.71;66.36;99490.63;4344144;32;32631;-80
2022/06/11 05:59:04;;;;;;;8.35;6.53;;;;;;;22.13;64.44;99494.47;4341803;33;33902;-80
2022/06/11 06:01:37;;;;;;;11.02;6.95;;;;;;;21.72;65.58;99495.81;4329574;33;35824;-78
2022/06/11 06:04:06;;;;;;;11.30;7.50;;;;;;;21.34;68.12;99500.50;4332063;33;35321;-81
2022/06/11 06:06:34;;;;;;;9.55;6.93;;;;;;;21.40;67.55;99511.59;4327243;33;34358;-81
2022/06/11 06:09:05;;;;;;;8.73;7.18;;;;;;;22.16;65.21;99499.59;4333274;32;34011;-72
2022/06/11 06:11:34;;;;;;;9.93;6.57;;;;;;;22.63;63.33;99503.19;4328592;33;35164;-72
2022/06/11 06:14:01;;;;;;;9.18;6.90;;;;;;;22.50;64.59;99501.25;4325735;33;34552;-70
2022/06/11 06:16:30;;;;;;;8.00;6.78;;;;;;;23.08;64.16;99509.41;4331233;33;33445;-70
2022/06/11 06:19:00;;;;;;;9.65;6.85;;;;;;;22.50;64.39;99498.59;4337725;33;33885;-70
2022/06/11 06:21:31;;;;;;;10.68;6.35;;;;;;;22.87;64.00;99507.06;4330495;33;34994;-81
2022/06/11 06:24:00;;;;;;;9.38;6.93;;;;;;;22.72;64.42;99507.94;4331869;33;34539;-74
2022/06/11 06:26:27;;;;;;;9.93;6.10;;;;;;;23.67;62.80;99499.59;4332005;33;33614;-70
2022/06/11 06:28:55;;;;;;;7.22;5.97;;;;;;;24.61;58.41;99511.41;4326567;33;34029;-81
2022/06/11 06:31:23;;;;;;;7.72;5.70;;;;;;;25.12;55.75;99503.50;4329728;33;35861;-80
2022/06/11 06:33:51;;;;;;;7.45;5.90;;;;;;;25.52;54.52;99500.78;4330190;33;35087;-69
2022/06/11 06:36:19;;;;;;;7.53;5.37;;;;;;;26.19;52.40;99483.59;4338915;32;34267;-71
2022/06/11 06:38:47;;;;;;;8.27;5.53;;;;;;;26.79;49.70;99488.97;4326524;33;34052;-80
2022/06/11 06:41:15;;;;;;;6.78;5.45;;;;;;;26.56;49.69;99488.88;4327147;33;35092;-70
2022/06/11 06:43:43;;;;;;;6.35;5.03;;;;;;;26.66;52.36;99489.91;4331188;33;34389;-70
2022/06/11 06:46:12;;;;;;;7.95;5.45;;;;;;;27.56;47.52;99496.44;4336323;33;34204;-82
2022/06/11 06:48:39;;;;;;;9.20;5.85;;;;;;;27.13;48.56;99489.06;4330061;33;33942;-74
2022/06/11 06:51:07;;;;;;;9.23;5.30;;;;;;;27.32;50.13;99491.19;4326780;33;34907;-71
2022/06/11 06:53:36;;;;;;;8.77;5.85;;;;;;;27.22;49.44;99499.91;4327045;33;33763;-69
2022/06/11 06:56:04;;;;;;;10.50;5.22;;;;;;;27.56;47.31;99502.62;4331634;33;33539;-70
2022/06/11 06:58:33;;;;;;;8.77;5.85;;;;;;;27.40;50.22;99494.97;4332429;33;33913;-69
2022/06/11 07:01:03;;;;;;;7.03;5.62;;;;;;;27.70;48.15;99498.87;4326865;33;35709;-71
2022/06/11 07:03:32;;;;;;;7.50;5.55;;;;;;;27.31;48.81;99502.88;4333188;33;34336;-77
2022/06/11 07:06:05;;;;;;;8.00;5.87;;;;;;;26.81;50.54;99495.06;4328421;33;33421;-70
2022/06/11 07:08:33;;;;;;;7.15;5.47;;;;;;;26.41;52.33;99503.34;4334822;33;34742;-71
2022/06/11 07:11:02;;;;;;;8.15;5.90;;;;;;;27.28;51.08;99508.44;4333825;33;34828;-70
2022/06/11 07:13:30;;;;;;;8.85;5.37;;;;;;;28.04;48.69;99512.25;4345188;32;34584;-70
2022/06/11 07:15:58;;;;;;;9.82;5.50;;;;;;;28.08;46.91;99513.72;4333866;33;33563;-71
2022/06/11 07:18:29;;;;;;;9.88;5.70;;;;;;;27.73;46.85;99503.97;4334870;33;33913;-71
2022/06/11 07:20:59;;;;;;;6.32;4.75;;;;;;;27.80;48.13;99501.66;4333929;33;35750;-80
2022/06/11 07:23:36;;;;;;;6.37;5.05;;;;;;;27.13;51.53;99505.13;4334724;33;34486;-71
2022/06/11 07:26:08;;;;;;;7.15;5.55;;;;;;;27.97;47.83;99506.56;4344168;32;34278;-71
2022/06/11 07:28:42;;;;;;;6.75;5.28;;;;;;;28.31;48.79;99506.47;4345659;33;33925;-81
2022/06/11 07:31:09;;;;;;;6.68;5.55;;;;;;;28.37;46.81;99503.28;4333465;33;35103;-72
2022/06/11 07:33:41;;;;;;;6.90;5.28;;;;;;;28.24;47.10;99507.13;4334689;33;35319;-75
2022/06/11 07:36:12;;;;;;;6.40;4.68;;;;;;;27.61;48.75;99502.28;4345215;33;33513;-71
2022/06/11 07:38:40;;;;;;;6.85;5.07;;;;;;;28.34;46.14;99500.00;4333408;33;32652;-71
2022/06/11 07:41:08;;;;;;;7.45;5.35;;;;;;;26.79;49.77;99497.84;4333800;33;35240;-84
2022/06/11 07:43:37;;;;;;;8.43;5.40;;;;;;;27.89;48.59;99497.41;4345462;33;35286;-81
2022/06/11 07:46:05;;;;;;;6.32;5.10;;;;;;;27.65;48.67;99509.06;4333197;33;34346;-82
2022/06/11 07:48:35;;;;;;;7.12;5.37;;;;;;;28.08;48.84;99499.47;4330616;33;33778;-71
2022/06/11 07:51:04;;;;;;;5.75;4.78;;;;;;;27.26;51.30;99500.50;4332929;33;34745;-71
2022/06/11 07:53:32;;;;;;;6.93;5.15;;;;;;;28.54;47.70;99501.09;4318633;33;34421;-72
2022/06/11 07:56:00;;;;;;;9.57;5.30;;;;;;;29.12;44.71;99498.00;4330499;33;33537;-70
2022/06/11 07:58:33;;;;;;;6.03;4.45;;;;;;;27.96;47.84;99493.28;4330981;33;34266;-71
2022/06/11 08:01:01;;;;;;;6.68;5.30;;;;;;;28.53;47.15;99500.19;4332705;33;35126;-82
2022/06/11 08:03:31;;;;;;;6.90;5.28;;;;;;;29.04;45.70;99504.00;4342643;32;33936;-71
2022/06/11 08:06:02;;;;;;;8.45;5.30;;;;;;;29.06;46.87;99503.88;4334387;33;32649;-72
2022/06/11 08:08:31;;;;;;;6.35;4.68;;;;;;;28.12;47.54;99504.44;4344314;32;31364;-72
2022/06/11 08:11:00;;;;;;;7.15;5.20;;;;;;;29.31;46.50;99502.62;4334113;33;35038;-71
2022/06/11 08:13:29;;;;;;;7.40;5.07;;;;;;;29.14;46.04;99498.72;4333658;33;35007;-73
2022/06/11 08:16:00;;;;;;;6.25;4.95;;;;;;;28.72;47.47;99499.53;4334277;33;34266;-81
2022/06/11 08:18:30;;;;;;;6.25;5.00;;;;;;;29.03;45.99;99498.75;4320616;33;34814;-72
2022/06/11 08:20:59;;;;;;;9.43;6.25;;;;;;;29.81;47.29;99501.94;4334094;33;34291;-71
2022/06/11 08:23:32;;;;;;;6.35;5.10;;;;;;;30.17;44.73;99502.31;4332764;33;34080;-72
2022/06/11 08:26:00;;;;;;;8.15;5.43;;;;;;;30.42;43.34;99504.47;4334183;33;33417;-71
2022/06/11 08:28:28;;;;;;;6.95;4.70;;;;;;;30.04;44.33;99506.09;4333699;33;33928;-77
2022/06/11 08:30:56;;;;;;;6.40;5.40;;;;;;;29.78;46.21;99496.81;4333789;33;35027;-73
2022/06/11 08:33:24;;;;;;;7.22;5.72;;;;;;;30.32;45.24;99492.88;4333571;33;34500;-71
2022/06/11 08:35:52;;;;;;;7.72;5.47;;;;;;;29.89;45.34;99491.34;4344453;32;33556;-71
2022/06/11 08:38:19;;;;;;;8.07;5.20;;;;;;;29.67;46.88;99505.78;4333763;33;34478;-70
2022/06/11 08:40:50;;;;;;;6.30;4.93;;;;;;;29.68;44.15;99500.28;4332312;33;35260;-72
2022/06/11 08:43:25;;;;;;;9.05;4.80;;;;;;;29.99;43.66;99502.97;4320128;33;32925;-71
2022/06/11 08:45:58;;;;;;;7.12;5.15;;;;;;;30.26;43.20;99498.78;4333194;33;34177;-72
2022/06/11 08:48:41;;;;;;;8.88;5.22;;;;;;;29.62;46.34;99506.19;4333777;33;34067;-80
2022/06/11 08:51:48;;;;;;;7.50;4.45;;;;;;;29.44;45.33;99499.75;4333717;33;35991;-84
2022/06/11 08:54:26;;;;;;;6.25;5.10;;;;;;;30.16;44.61;99487.16;4317950;33;34542;-73
2022/06/11 08:57:15;;;;;;;7.47;5.22;;;;;;;30.53;44.23;99489.22;4332352;32;34292;-71
2022/06/11 09:00:05;;;;;;;5.75;4.90;;;;;;;30.15;42.89;99488.16;4331255;33;33591;-71
2022/06/11 09:02:39;;;;;;;6.85;4.90;;;;;;;30.53;42.37;99489.22;4319309;33;35787;-72
2022/06/11 09:05:45;;;;;;;6.53;4.80;;;;;;;30.47;42.99;99484.41;4334764;33;33712;-71
2022/06/11 09:08:34;;;;;;;7.15;4.78;;;;;;;30.83;41.05;99490.06;4319208;33;34204;-71
2022/06/11 09:11:24;;;;;;;7.68;4.93;;;;;;;30.29;44.51;99487.75;4319278;33;34861;-71
2022/06/11 09:14:14;;;;;;;5.68;4.80;;;;;;;30.83;42.03;99484.69;4324873;33;36061;-71
2022/06/11 09:16:57;;;;;;;5.93;4.72;;;;;;;30.54;43.28;99483.69;4331541;33;35204;-79
2022/06/11 09:19:47;;;;;;;6.05;4.95;;;;;;;30.18;41.71;99487.91;4344179;33;33410;-71
2022/06/11 09:22:42;;;;;;;7.05;4.72;;;;;;;31.47;41.78;99478.62;4341913;32;34672;-71
2022/06/11 09:25:25;;;;;;;6.03;4.97;;;;;;;30.99;39.79;99482.28;4333002;33;34884;-72
2022/06/11 09:28:01;;;;;;;5.97;4.62;;;;;;;31.16;41.16;99470.78;4333363;33;34579;-73
2022/06/11 09:30:46;;;;;;;6.68;4.57;;;;;;;31.72;42.17;99481.66;4331939;33;34503;-80
2022/06/11 09:33:20;;;;;;;6.20;4.72;;;;;;;31.64;42.19;99477.00;4332991;33;33944;-79
2022/06/11 09:36:12;;;;;;;8.57;4.45;;;;;;;31.12;40.81;99469.38;4332546;33;35330;-79
2022/06/11 09:39:05;;;;;;;6.97;5.60;;;;;;;30.79;40.38;99476.88;4343093;32;34569;-80
2022/06/11 09:41:47;;;;;;;5.87;4.60;;;;;;;30.14;42.71;99467.66;4332630;33;33516;-85
2022/06/11 09:44:18;;;;;;;7.30;4.93;;;;;;;30.69;42.63;99476.06;4329880;33;34813;-84
2022/06/11 09:47:00;;;;;;;8.57;4.60;;;;;;;30.59;41.16;99473.38;4319506;33;35756;-83
2022/06/11 09:49:48;;;;;;;6.47;4.85;;;;;;;31.14;39.04;99469.22;4332030;33;35357;-79
2022/06/11 09:52:31;;;;;;;5.37;4.32;;;;;;;30.65;42.03;99469.25;4330559;33;33548;-80
2022/06/11 09:55:18;;;;;;;6.00;4.45;;;;;;;30.01;43.53;99467.91;4319460;33;34185;-81
2022/06/11 09:58:05;;;;;;;6.70;4.87;;;;;;;29.78;41.92;99467.28;4331722;33;34945;-87
2022/06/11 10:00:59;;;;;;;7.72;4.95;;;;;;;29.50;42.14;99472.38;4332395;33;34655;-81
2022/06/11 10:03:37;;;;;;;9.07;5.25;;;;;;;28.63;44.01;99470.00;4343377;32;33393;-79
2022/06/11 10:06:09;;;;;;;5.85;4.97;;;;;;;29.53;43.73;99466.75;4332356;33;32435;-79
2022/06/11 10:08:48;;;;;;;7.93;5.03;;;;;;;30.20;45.00;99461.75;4332497;33;35852;-83
2022/06/11 10:11:30;;;;;;;5.57;4.60;;;;;;;30.64;42.75;99470.28;4320042;33;34344;-80
2022/06/11 10:14:28;;;;;;;6.60;4.62;;;;;;;29.71;42.96;99471.47;4343388;32;34246;-85
2022/06/11 10:16:57;;;;;;;8.15;5.40;;;;;;;29.46;42.99;99468.28;4332652;33;34874;-86
2022/06/11 10:19:35;;;;;;;6.70;5.20;;;;;;;29.94;43.51;99466.78;4318302;33;35816;-79
2022/06/11 10:22:15;;;;;;;5.70;4.50;;;;;;;29.76;44.72;99463.91;4318480;33;34327;-78
2022/06/11 10:24:55;;;;;;;7.68;4.95;;;;;;;28.68;44.58;99465.94;4331662;33;33142;-79
2022/06/11 10:27:28;;;;;;;10.30;4.28;;;;;;;28.78;45.53;99460.63;4331419;33;33617;-79
2022/06/11 10:30:02;;;;;;;5.65;4.50;;;;;;;28.92;44.11;99467.50;4342582;32;34919;-78
2022/06/11 10:32:36;;;;;;;7.35;4.47;;;;;;;28.27;45.01;99461.31;4344613;32;34122;-79
2022/06/11 10:35:17;;;;;;;5.53;4.30;;;;;;;28.90;47.51;99454.22;4345778;33;33987;-86
2022/06/11 10:37:53;;;;;;;5.22;3.92;;;;;;;28.76;44.14;99459.94;4320999;33;34017;-87
2022/06/11 10:40:28;;;;;;;6.40;4.47;;;;;;;28.02;44.99;99447.28;4333736;33;35194;-78
2022/06/11 10:43:00;;;;;;;6.18;4.32;;;;;;;28.68;43.54;99449.03;4334678;33;36054;-80
2022/06/11 10:45:28;;;;;;;6.50;4.22;;;;;;;28.96;45.18;99450.22;4335029;33;33469;-85
2022/06/11 10:47:58;;;;;;;6.85;3.92;;;;;;;28.77;45.95;99461.63;4332592;33;34667;-84
2022/06/11 10:50:34;;;;;;;6.90;4.70;;;;;;;28.42;44.53;99446.66;4334137;33;37071;-79
2022/06/11 10:53:25;;;;;;;5.65;4.05;;;;;;;28.23;44.42;99457.22;4344986;32;34214;-80
2022/06/11 10:56:05;;;;;;;5.97;4.50;;;;;;;28.45;44.75;99450.91;4334574;33;33425;-78
2022/06/11 10:58:43;;;;;;;5.53;4.30;;;;;;;28.55;45.52;99451.87;4333184;33;34090;-78
2022/06/11 11:01:20;;;;;;;4.57;3.72;;;;;;;28.54;45.56;99455.53;4345011;32;34926;-78
2022/06/11 11:03:57;;;;;;;5.20;4.03;;;;;;;29.02;44.07;99451.50;4333088;33;35070;-78
2022/06/11 11:06:26;;;;;;;6.25;3.90;;;;;;;29.77;43.32;99449.47;4332669;33;33460;-78
2022/06/11 11:09:00;;;;;;;5.50;4.15;;;;;;;30.01;40.94;99447.28;4333595;33;33947;-78
2022/06/11 11:11:34;;;;;;;6.37;3.95;;;;;;;28.90;43.67;99451.56;4334260;33;34930;-78
2022/06/11 11:14:15;;;;;;;6.75;4.05;;;;;;;28.99;42.73;99449.06;4344757;32;35124;-77
2022/06/11 11:16:47;;;;;;;5.53;3.45;;;;;;;28.25;43.62;99444.53;4332731;33;32206;-78
2022/06/11 11:19:25;;;;;;;6.12;4.00;;;;;;;28.30;43.35;99442.31;4345231;33;33953;-78
2022/06/11 11:22:07;;;;;;;5.75;4.00;;;;;;;28.14;45.03;99446.28;4332710;33;35988;-77
2022/06/11 11:24:43;;;;;;;5.05;3.72;;;;;;;28.28;43.54;99444.28;4332802;33;34333;-86
2022/06/11 11:27:17;;;;;;;8.25;4.15;;;;;;;28.96;44.90;99433.25;4333523;33;33275;-86
2022/06/11 11:30:14;;;;;;;4.43;3.50;;;;;;;29.24;43.47;99429.06;4344011;32;34925;-86
2022/06/11 11:32:46;;;;;;;6.87;3.55;;;;;;;29.66;45.07;99429.78;4330271;33;35778;-86
2022/06/11 11:35:23;;;;;;;4.45;3.50;;;;;;;30.22;43.75;99424.84;4334550;33;36147;-84
2022/06/11 11:38:11;;;;;;;7.10;3.72;;;;;;;30.08;39.30;99419.88;4334245;33;32984;-87
2022/06/11 11:40:59;;;;;;;4.65;3.47;;;;;;;29.86;40.79;99425.34;4332641;33;32236;-86
2022/06/11 11:43:41;;;;;;;6.80;4.15;;;;;;;29.72;41.94;99420.34;4330411;33;35031;-87
2022/06/11 11:46:17;;;;;;;4.95;3.60;;;;;;;29.06;40.45;99421.59;4327819;33;34443;-85
2022/06/11 11:48:48;;;;;;;4.78;3.42;;;;;;;29.86;40.88;99416.44;4334603;33;34194;-85
2022/06/11 11:51:32;;;;;;;4.40;3.50;;;;;;;29.93;41.08;99404.19;4334121;33;33999;-86
2022/06/11 11:54:00;;;;;;;6.45;3.67;;;;;;;30.09;42.20;99409.00;4334592;33;35908;-79
2022/06/11 11:56:44;;;;;;;5.22;3.53;;;;;;;30.38;41.37;99405.50;4331707;33;34441;-85
2022/06/11 11:59:24;;;;;;;4.68;3.37;;;;;;;30.18;42.69;99412.69;4332465;33;33445;-79
2022/06/11 12:01:56;;;;;;;7.32;3.37;;;;;;;30.06;41.02;99402.06;4333890;33;33935;-79